Time;durP1;ratioP1;P1;durP2;ratioP2;P2;SDS_P1;SDS_P2;PMS_P1;PMS_P2;Temp;Humidity;BMP_temperature;BMP_pressure;BME280_temperature;BME280_humidity;BME280_pressure;Samples;Min_cycle;Max_cycle;Signal;HPM_P1;HPM_P2
2023/10/26 00:02:25;;;;;;;;;;;;;;;28.70;85.07;101069.09;5039201;28;69778;-44
2023/10/26 00:04:55;;;;;;;;;;;;;;;28.69;86.09;101073.63;5048894;28;67066;-43
2023/10/26 00:07:25;;;;;;;;;;;;;;;28.72;86.48;101080.50;5038778;28;70283;-43
2023/10/26 00:09:57;;;;;;;;;;;;;;;28.77;87.00;101086.13;5039321;28;66320;-42
2023/10/26 00:12:27;;;;;;;;;;;;;;;28.80;87.84;101090.28;5051622;28;70324;-42
2023/10/26 00:14:56;;;;;;;;;;;;;;;28.79;87.54;101092.16;5034982;28;67160;-42
2023/10/26 00:17:26;;;;;;;;;;;;;;;28.82;87.73;101089.06;5037727;28;70176;-41
2023/10/26 00:19:56;;;;;;;;;;;;;;;28.85;87.78;101094.06;5037098;28;65991;-41
2023/10/26 00:22:28;;;;;;;;;;;;;;;28.89;87.94;101100.75;5035683;28;70734;-42
2023/10/26 00:24:59;;;;;;;;;;;;;;;28.94;87.53;101109.03;5037630;28;65724;-41
2023/10/26 00:27:28;;;;;;;;;;;;;;;28.97;87.80;101113.22;5035186;28;70672;-43
2023/10/26 00:29:58;;;;;;;;;;;;;;;29.01;88.00;101108.25;5036534;28;66786;-42
2023/10/26 00:32:28;;;;;;;;;;;;;;;29.03;87.93;101117.84;5036236;28;70201;-41
2023/10/26 00:34:59;;;;;;;;;;;;;;;29.04;87.30;101124.09;5050040;28;66076;-41
2023/10/26 00:37:30;;;;;;;;;;;;;;;29.06;87.75;101127.41;5037013;28;70743;-42
2023/10/26 00:40:02;;;;;;;;;;;;;;;29.08;87.36;101131.56;5035833;28;66181;-45
2023/10/26 00:42:32;;;;;;;;;;;;;;;29.11;87.79;101141.13;5037381;28;70607;-42
2023/10/26 00:45:02;;;;;;;;;;;;;;;29.14;86.88;101143.44;5034194;28;65597;-43
2023/10/26 00:47:32;;;;;;;;;;;;;;;29.17;86.93;101146.56;5036746;28;69070;-42
2023/10/26 00:50:03;;;;;;;;;;;;;;;29.15;85.31;101147.81;5043789;28;67125;-41
2023/10/26 00:52:35;;;;;;;;;;;;;;;29.16;84.01;101146.75;5039879;28;69777;-40
2023/10/26 00:55:06;;;;;;;;;;;;;;;29.20;83.16;101149.88;5039093;28;66326;-41
2023/10/26 00:57:36;;;;;;;;;;;;;;;29.24;81.99;101154.69;5039052;28;69273;-40
2023/10/26 01:00:07;;;;;;;;;;;;;;;29.27;81.77;101154.28;5031525;28;65487;-45
2023/10/26 01:02:38;;;;;;;;;;;;;;;29.30;81.30;101167.38;5034497;28;70429;-40
2023/10/26 01:05:08;;;;;;;;;;;;;;;29.33;80.47;101172.38;5036023;28;66545;-41
2023/10/26 01:07:39;;;;;;;;;;;;;;;29.37;79.57;101178.22;5040033;28;69899;-42
2023/10/26 01:10:10;;;;;;;;;;;;;;;29.39;80.01;101185.09;5037168;28;64901;-40
2023/10/26 01:12:40;;;;;;;;;;;;;;;29.42;79.35;101193.81;5038304;28;68977;-45
2023/10/26 01:15:10;;;;;;;;;;;;;;;29.46;78.85;101197.81;5035305;28;67068;-43
2023/10/26 01:17:41;;;;;;;;;;;;;;;29.47;78.20;101199.44;5033947;28;69924;-43
2023/10/26 01:20:16;;;;;;;;;;;;;;;29.50;78.57;101209.84;5053763;28;65872;-44
2023/10/26 01:22:46;;;;;;;;;;;;;;;29.52;77.64;101207.78;5038086;28;70260;-45
2023/10/26 01:25:16;;;;;;;;;;;;;;;29.27;77.78;101167.78;5036753;28;66181;-45
2023/10/26 01:27:47;;;;;;;;;;;;;;;29.56;77.92;101217.16;5036248;28;70661;-47
2023/10/26 01:30:17;;;;;;;;;;;;;;;29.59;77.38;101219.47;5039490;28;67248;-45
2023/10/26 01:32:47;;;;;;;;;;;;;;;29.61;77.17;101229.03;5037937;28;70390;-43
2023/10/26 01:35:17;;;;;;;;;;;;;;;29.64;76.93;101227.81;5033056;28;66908;-44
2023/10/26 01:37:47;;;;;;;;;;;;;;;29.65;76.63;101226.78;5039909;28;69569;-44
2023/10/26 01:40:18;;;;;;;;;;;;;;;29.68;76.49;101226.38;5039840;28;65971;-43
2023/10/26 01:42:48;;;;;;;;;;;;;;;29.70;76.52;101227.03;5039114;28;69965;-44
2023/10/26 01:45:17;;;;;;;;;;;;;;;29.73;76.39;101242.84;5039625;28;66611;-44
2023/10/26 01:47:47;;;;;;;;;;;;;;;29.74;76.18;101230.97;5035657;28;70919;-43
2023/10/26 01:50:17;;;;;;;;;;;;;;;29.77;75.74;101227.84;5034406;28;67021;-44
2023/10/26 01:52:47;;;;;;;;;;;;;;;29.79;75.75;101233.91;5041333;28;69749;-43
2023/10/26 01:55:17;;;;;;;;;;;;;;;29.82;76.04;101225.38;5037354;28;66772;-43
2023/10/26 01:57:47;;;;;;;;;;;;;;;29.84;75.80;101234.13;5039119;28;70515;-44
2023/10/26 02:00:18;;;;;;;;;;;;;;;29.88;75.74;101228.31;5036489;28;66605;-44
2023/10/26 02:02:49;;;;;;;;;;;;;;;29.90;75.36;101234.34;5036256;28;70367;-43
2023/10/26 02:05:20;;;;;;;;;;;;;;;29.91;75.18;101228.72;5042498;28;65961;-44
2023/10/26 02:07:50;;;;;;;;;;;;;;;29.93;75.59;101234.75;5036755;28;70199;-47
2023/10/26 02:10:21;;;;;;;;;;;;;;;29.95;74.98;101232.69;5022012;28;66786;-47
2023/10/26 02:12:51;;;;;;;;;;;;;;;29.97;75.42;101238.69;5038605;28;69354;-45
2023/10/26 02:15:22;;;;;;;;;;;;;;;30.00;75.23;101229.34;5038878;28;66562;-43
2023/10/26 02:17:52;;;;;;;;;;;;;;;30.00;75.04;101221.22;5038605;28;70215;-45
2023/10/26 02:20:23;;;;;;;;;;;;;;;30.03;74.98;101223.50;5037554;28;64745;-44
2023/10/26 02:22:53;;;;;;;;;;;;;;;30.06;74.76;101225.81;5038981;28;69918;-45
2023/10/26 02:25:23;;;;;;;;;;;;;;;30.07;74.70;101227.50;5034739;28;65360;-44
2023/10/26 02:27:53;;;;;;;;;;;;;;;30.11;74.40;101233.31;5037661;28;69857;-45
2023/10/26 02:30:23;;;;;;;;;;;;;;;30.14;74.34;101227.50;5054369;28;66839;-44
2023/10/26 02:32:54;;;;;;;;;;;;;;;30.15;74.28;101230.00;5038722;28;71261;-46
2023/10/26 02:35:24;;;;;;;;;;;;;;;30.17;74.41;101222.53;5045753;28;66993;-46
2023/10/26 02:37:55;;;;;;;;;;;;;;;30.20;73.86;101230.22;5038728;28;69827;-45
2023/10/26 02:40:25;;;;;;;;;;;;;;;30.22;73.76;101222.72;5054684;28;66991;-46
2023/10/26 02:42:56;;;;;;;;;;;;;;;30.24;73.91;101223.38;5035235;28;70721;-45
2023/10/26 02:45:26;;;;;;;;;;;;;;;30.26;73.46;101221.28;5032782;28;65294;-46
2023/10/26 02:47:57;;;;;;;;;;;;;;;30.30;74.03;101212.75;5037903;28;70249;-45
2023/10/26 02:50:28;;;;;;;;;;;;;;;30.32;73.55;101218.81;5024726;28;65596;-45
2023/10/26 02:53:00;;;;;;;;;;;;;;;30.34;73.21;101211.28;5048315;28;70026;-47
2023/10/26 02:55:31;;;;;;;;;;;;;;;30.36;73.18;101206.50;5038446;28;66548;-46
2023/10/26 02:58:02;;;;;;;;;;;;;;;30.38;73.38;101196.31;5035567;28;70136;-46
2023/10/26 03:00:31;;;;;;;;;;;;;;;30.42;73.44;101202.94;5037970;28;66414;-46
2023/10/26 03:03:02;;;;;;;;;;;;;;;30.43;73.21;101189.22;5042642;28;69561;-45
2023/10/26 03:05:33;;;;;;;;;;;;;;;30.44;72.75;101190.03;5035515;28;67098;-45
2023/10/26 03:08:03;;;;;;;;;;;;;;;30.46;73.22;101183.38;5045305;28;68964;-45
2023/10/26 03:10:33;;;;;;;;;;;;;;;30.49;72.60;101187.53;5055134;28;67004;-45
2023/10/26 03:13:04;;;;;;;;;;;;;;;30.51;72.56;101185.47;5037866;28;69903;-46
2023/10/26 03:15:34;;;;;;;;;;;;;;;30.54;72.83;101173.38;5042615;28;67016;-47
2023/10/26 03:18:04;;;;;;;;;;;;;;;30.55;72.67;101170.44;5041873;28;69342;-47
2023/10/26 03:20:34;;;;;;;;;;;;;;;30.56;72.52;101163.97;5025094;28;66123;-46
2023/10/26 03:23:04;;;;;;;;;;;;;;;30.59;72.20;101166.28;5057147;28;70370;-45
2023/10/26 03:25:34;;;;;;;;;;;;;;;30.61;72.45;101157.94;5042934;28;66323;-46
2023/10/26 03:28:04;;;;;;;;;;;;;;;30.62;72.50;101152.34;5036976;28;70915;-46
2023/10/26 03:30:34;;;;;;;;;;;;;;;30.64;72.54;101147.50;5029638;28;66151;-45
2023/10/26 03:33:04;;;;;;;;;;;;;;;30.67;72.40;101147.13;5040674;28;70375;-46
2023/10/26 03:35:35;;;;;;;;;;;;;;;30.69;72.42;101145.00;5042346;28;66970;-45
2023/10/26 03:38:05;;;;;;;;;;;;;;;30.72;71.73;101139.16;5029854;28;70406;-45
2023/10/26 03:40:35;;;;;;;;;;;;;;;30.74;72.13;101133.53;5043137;28;66846;-44
2023/10/26 03:43:05;;;;;;;;;;;;;;;30.57;71.91;101108.00;5041606;28;70571;-47
2023/10/26 03:45:35;;;;;;;;;;;;;;;30.78;72.00;101136.66;5041083;28;66767;-46
2023/10/26 03:48:05;;;;;;;;;;;;;;;30.81;71.95;101133.53;5042362;28;69658;-44
2023/10/26 03:50:36;;;;;;;;;;;;;;;30.81;71.88;101128.13;5040300;28;66889;-46
2023/10/26 03:53:06;;;;;;;;;;;;;;;30.83;71.46;101118.75;5044176;28;69342;-48
2023/10/26 03:55:36;;;;;;;;;;;;;;;30.85;71.25;101115.84;5041574;28;65541;-47
2023/10/26 03:58:06;;;;;;;;;;;;;;;30.86;71.37;101112.91;5055896;28;70521;-44
2023/10/26 04:00:36;;;;;;;;;;;;;;;30.89;71.54;101122.47;5042450;28;65912;-45
2023/10/26 04:03:06;;;;;;;;;;;;;;;30.90;71.47;101107.91;5039780;28;70372;-45
2023/10/26 04:05:36;;;;;;;;;;;;;;;30.91;71.30;101106.84;5041867;28;65522;-45
2023/10/26 04:08:07;;;;;;;;;;;;;;;30.94;71.59;101103.69;5042329;28;69516;-45
2023/10/26 04:10:36;;;;;;;;;;;;;;;30.95;70.90;101094.50;5042894;28;66567;-46
2023/10/26 04:13:07;;;;;;;;;;;;;;;30.96;71.14;101098.09;5035513;28;70572;-45
2023/10/26 04:15:36;;;;;;;;;;;;;;;30.98;71.00;101077.84;5042040;28;66857;-45
2023/10/26 04:18:06;;;;;;;;;;;;;;;31.01;70.75;101082.84;5041221;28;70288;-45
2023/10/26 04:20:36;;;;;;;;;;;;;;;31.02;70.65;101084.50;5039392;28;66755;-45
2023/10/26 04:23:06;;;;;;;;;;;;;;;31.03;71.11;101075.31;5041756;28;69986;-47
2023/10/26 04:25:37;;;;;;;;;;;;;;;31.05;70.73;101067.81;5039960;28;66670;-47
2023/10/26 04:28:22;;;;;;;;;;;;;;;31.09;70.72;101062.78;5040366;28;70042;-46
2023/10/26 04:30:53;;;;;;;;;;;;;;;31.09;70.88;101047.38;5041841;28;66182;-46
2023/10/26 04:33:22;;;;;;;;;;;;;;;31.12;70.45;101038.78;5027627;28;69761;-46
2023/10/26 04:35:52;;;;;;;;;;;;;;;31.14;70.65;101038.56;5041356;28;66581;-45
2023/10/26 04:38:22;;;;;;;;;;;;;;;31.16;70.25;101037.28;5041036;28;70492;-45
2023/10/26 04:40:53;;;;;;;;;;;;;;;31.20;70.69;101032.25;5036656;28;66044;-46
2023/10/26 04:43:23;;;;;;;;;;;;;;;31.22;70.22;101032.06;5039424;28;70277;-46
2023/10/26 04:45:52;;;;;;;;;;;;;;;31.23;70.22;101033.72;5040333;28;65956;-44
2023/10/26 04:48:22;;;;;;;;;;;;;;;31.26;70.12;101025.13;5039874;28;70188;-46
2023/10/26 04:50:52;;;;;;;;;;;;;;;31.26;69.94;101020.56;5039436;28;65154;-45
2023/10/26 04:53:22;;;;;;;;;;;;;;;31.28;70.10;101014.91;5040101;28;69737;-46
2023/10/26 04:55:52;;;;;;;;;;;;;;;31.14;69.71;100993.31;5039739;28;66635;-45
2023/10/26 04:58:22;;;;;;;;;;;;;;;31.30;69.66;101012.81;5037403;28;69770;-45
2023/10/26 05:00:52;;;;;;;;;;;;;;;31.31;69.83;100996.31;5040309;28;67126;-45
2023/10/26 05:03:22;;;;;;;;;;;;;;;31.32;69.71;100995.28;5038882;28;70646;-46
2023/10/26 05:05:52;;;;;;;;;;;;;;;31.33;69.60;100994.22;5040258;28;65771;-46
2023/10/26 05:08:22;;;;;;;;;;;;;;;31.34;69.47;100987.78;5043070;28;70574;-45
2023/10/26 05:10:52;;;;;;;;;;;;;;;31.37;69.66;100978.38;5041096;28;65037;-49
2023/10/26 05:13:23;;;;;;;;;;;;;;;31.38;69.55;100985.47;5042512;28;69236;-46
2023/10/26 05:15:53;;;;;;;;;;;;;;;31.39;69.51;100970.88;5040822;28;66099;-45
2023/10/26 05:18:23;;;;;;;;;;;;;;;31.38;69.05;100969.22;5040376;28;70362;-47
2023/10/26 05:20:53;;;;;;;;;;;;;;;31.40;68.99;100967.13;5038209;28;65795;-45
2023/10/26 05:23:23;;;;;;;;;;;;;;;31.41;69.25;100962.53;5038980;28;69839;-48
2023/10/26 05:25:53;;;;;;;;;;;;;;;31.41;69.14;100960.63;5037261;28;66435;-44
2023/10/26 05:28:23;;;;;;;;;;;;;;;31.42;69.23;100970.41;5039843;28;70519;-45
2023/10/26 05:30:53;;;;;;;;;;;;;;;31.41;68.99;100976.91;5029105;28;67353;-46
2023/10/26 05:33:23;;;;;;;;;;;;;;;31.44;69.06;100962.91;5038924;28;70740;-46
2023/10/26 05:35:54;;;;;;;;;;;;;;;31.44;68.98;100962.91;5037708;28;66144;-45
2023/10/26 05:38:23;;;;;;;;;;;;;;;31.44;69.12;100973.75;5040929;28;69710;-45
2023/10/26 05:40:55;;;;;;;;;;;;;;;31.46;69.03;100987.09;5037881;28;66560;-46
2023/10/26 05:43:25;;;;;;;;;;;;;;;31.47;68.92;100972.47;5039871;28;68912;-45
2023/10/26 05:46:01;;;;;;;;;;;;;;;31.47;68.96;100951.59;5039634;28;65557;-46
2023/10/26 05:48:32;;;;;;;;;;;;;;;31.48;68.67;100941.59;5039254;28;70340;-46
2023/10/26 05:51:03;;;;;;;;;;;;;;;31.48;68.99;100942.44;5031924;28;66191;-46
2023/10/26 05:53:32;;;;;;;;;;;;;;;31.47;68.68;100929.91;5047802;28;69282;-46
2023/10/26 05:56:04;;;;;;;;;;;;;;;31.50;68.77;100918.63;5046832;28;65893;-45
2023/10/26 05:58:34;;;;;;;;;;;;;;;31.50;68.82;100918.63;5036573;28;70709;-46
2023/10/26 06:01:03;;;;;;;;;;;;;;;31.52;68.49;100913.81;5034266;28;66536;-46
2023/10/26 06:03:33;;;;;;;;;;;;;;;31.50;68.47;100902.34;5049408;28;69868;-45
2023/10/26 06:06:03;;;;;;;;;;;;;;;31.51;68.64;100893.19;5040851;28;66891;-46
2023/10/26 06:08:33;;;;;;;;;;;;;;;31.51;68.63;100893.19;5039513;28;70083;-46
2023/10/26 06:11:03;;;;;;;;;;;;;;;31.52;68.57;100892.13;5033223;28;66201;-47
2023/10/26 06:13:33;;;;;;;;;;;;;;;31.52;68.69;100888.59;5040183;28;70091;-47
2023/10/26 06:16:03;;;;;;;;;;;;;;;31.52;68.50;100878.56;5036894;28;66511;-47
2023/10/26 06:18:33;;;;;;;;;;;;;;;31.51;68.65;100874.22;5035403;28;70119;-46
2023/10/26 06:21:03;;;;;;;;;;;;;;;31.53;68.57;100869.38;5051228;28;66070;-46
2023/10/26 06:23:33;;;;;;;;;;;;;;;31.53;68.39;100858.53;5039733;28;70375;-45
2023/10/26 06:26:04;;;;;;;;;;;;;;;31.53;68.37;100863.94;5039691;28;66096;-44
2023/10/26 06:28:33;;;;;;;;;;;;;;;31.53;68.53;100869.38;5037967;28;70067;-47
2023/10/26 06:31:16;;;;;;;;;;;;;;;31.54;68.47;100867.50;5026653;28;66388;-45
2023/10/26 06:33:46;;;;;;;;;;;;;;;31.54;68.43;100862.09;5024532;28;70039;-46
2023/10/26 06:36:16;;;;;;;;;;;;;;;31.54;68.58;100860.19;5038918;28;66754;-45
2023/10/26 06:38:46;;;;;;;;;;;;;;;31.54;68.65;100860.19;5038908;28;69971;-46
2023/10/26 06:41:16;;;;;;;;;;;;;;;31.54;68.36;100848.53;5042400;28;65799;-51
2023/10/26 06:43:46;;;;;;;;;;;;;;;31.54;68.74;100837.69;5043001;28;70030;-46
2023/10/26 06:46:16;;;;;;;;;;;;;;;31.54;68.64;100824.97;5042069;28;65556;-45
2023/10/26 06:48:46;;;;;;;;;;;;;;;31.54;68.66;100824.97;5043219;28;70646;-45
2023/10/26 06:51:17;;;;;;;;;;;;;;;31.55;69.01;100832.03;5042538;28;67045;-46
2023/10/26 06:53:47;;;;;;;;;;;;;;;31.55;68.70;100832.03;5034479;28;69663;-45
2023/10/26 06:56:16;;;;;;;;;;;;;;;31.55;68.75;100829.31;5026367;28;65941;-45
2023/10/26 06:58:47;;;;;;;;;;;;;;;31.55;68.77;100834.72;5034152;28;70242;-46
2023/10/26 07:01:17;;;;;;;;;;;;;;;31.56;68.70;100830.13;5029777;28;66595;-45
2023/10/26 07:03:50;;;;;;;;;;;;;;;31.56;68.77;100839.09;5039769;28;70666;-46
2023/10/26 07:06:21;;;;;;;;;;;;;;;31.56;68.69;100836.38;5038138;28;66592;-45
2023/10/26 07:08:51;;;;;;;;;;;;;;;31.57;68.63;100826.38;5043334;28;70884;-46
2023/10/26 07:11:24;;;;;;;;;;;;;;;31.56;68.73;100809.25;5035983;28;67060;-45
2023/10/26 07:13:54;;;;;;;;;;;;;;;31.56;68.78;100809.25;5041608;28;69634;-45
2023/10/26 07:16:24;;;;;;;;;;;;;;;31.57;68.72;100821.78;5036294;28;65920;-45
2023/10/26 07:18:54;;;;;;;;;;;;;;;31.57;68.77;100829.94;5042291;28;69754;-46
2023/10/26 07:21:23;;;;;;;;;;;;;;;31.57;68.60;100835.34;5035799;28;65692;-45
2023/10/26 07:23:54;;;;;;;;;;;;;;;31.58;68.71;100839.69;5032431;28;70608;-46
2023/10/26 07:26:23;;;;;;;;;;;;;;;31.59;68.60;100838.66;5030242;28;66296;-45
2023/10/26 07:28:55;;;;;;;;;;;;;;;31.60;68.86;100829.47;5040576;28;70430;-45
2023/10/26 07:31:25;;;;;;;;;;;;;;;31.62;68.72;100826.50;5041493;28;65470;-45
2023/10/26 07:33:54;;;;;;;;;;;;;;;31.61;68.72;100817.56;5023419;28;69218;-45
2023/10/26 07:36:26;;;;;;;;;;;;;;;31.63;68.72;100814.63;5022832;28;66425;-45
2023/10/26 07:38:57;;;;;;;;;;;;;;;31.65;68.71;100811.66;5039485;28;69735;-45
2023/10/26 07:41:47;;;;;;;;;;;;;;;31.67;68.65;100810.41;5037617;28;66211;-45
2023/10/26 07:44:38;;;;;;;;;;;;;;;31.70;68.72;100826.22;5039166;28;70515;-44
2023/10/26 07:47:08;;;;;;;;;;;;;;;31.72;68.59;100828.72;5038828;28;66590;-45
2023/10/26 07:49:38;;;;;;;;;;;;;;;31.74;68.59;100832.84;5039195;28;70215;-45
2023/10/26 07:52:08;;;;;;;;;;;;;;;31.76;68.54;100846.16;5041614;28;67136;-45
2023/10/26 07:54:38;;;;;;;;;;;;;;;31.79;68.43;100837.59;5039482;28;70453;-45
2023/10/26 07:57:08;;;;;;;;;;;;;;;31.80;68.28;100839.25;5042692;28;65527;-45
2023/10/26 07:59:38;;;;;;;;;;;;;;;31.81;68.33;100830.03;5041684;28;70343;-46
2023/10/26 08:02:08;;;;;;;;;;;;;;;31.85;68.49;100831.25;5039047;28;66142;-46
2023/10/26 08:04:38;;;;;;;;;;;;;;;31.88;68.35;100828.09;5038082;28;69772;-45
2023/10/26 08:07:08;;;;;;;;;;;;;;;31.91;68.27;100837.66;5039812;28;66641;-45
2023/10/26 08:09:38;;;;;;;;;;;;;;;31.93;68.44;100832.84;5036916;28;69490;-45
2023/10/26 08:12:10;;;;;;;;;;;;;;;31.96;68.30;100841.38;5040124;28;66859;-46
2023/10/26 08:14:40;;;;;;;;;;;;;;;31.97;68.45;100848.44;5035425;28;70554;-45
2023/10/26 08:17:36;;;;;;;;;;;;;;;32.00;68.27;100837.13;5038803;28;66344;-45
2023/10/26 08:20:07;;;;;;;;;;;;;;;32.02;68.26;100848.59;5037821;28;69929;-45
2023/10/26 08:22:37;;;;;;;;;;;;;;;32.04;68.23;100857.34;5038104;28;67333;-46
2023/10/26 08:25:07;;;;;;;;;;;;;;;32.05;68.19;100860.88;5040706;28;69943;-45
2023/10/26 08:27:39;;;;;;;;;;;;;;;32.08;68.15;100860.41;5039297;28;66882;-45
2023/10/26 08:30:10;;;;;;;;;;;;;;;32.11;68.12;100869.97;5040663;28;70045;-46
2023/10/26 08:32:39;;;;;;;;;;;;;;;32.12;67.99;100872.44;5039891;28;66262;-45
2023/10/26 08:35:10;;;;;;;;;;;;;;;32.16;67.81;100878.28;5038014;28;70222;-43
2023/10/26 08:37:40;;;;;;;;;;;;;;;32.16;67.76;100889.13;5040508;28;66801;-45
2023/10/26 08:40:13;;;;;;;;;;;;;;;32.19;67.79;100888.66;5041456;28;70349;-46
2023/10/26 08:42:43;;;;;;;;;;;;;;;32.21;67.56;100886.56;5040330;28;65555;-44
2023/10/26 08:45:24;;;;;;;;;;;;;;;32.22;67.62;100866.50;5041529;28;69777;-46
2023/10/26 08:47:55;;;;;;;;;;;;;;;32.23;67.41;100851.84;5038124;28;67248;-45
2023/10/26 08:50:26;;;;;;;;;;;;;;;32.25;67.53;100838.88;5037333;28;70756;-44
2023/10/26 08:52:56;;;;;;;;;;;;;;;32.26;67.40;100829.66;5036569;28;66546;-45
2023/10/26 08:55:26;;;;;;;;;;;;;;;32.24;67.27;100819.06;5034598;28;70673;-45
2023/10/26 08:58:01;;;;;;;;;;;;;;;32.26;67.34;100824.25;5040784;28;66657;-45
2023/10/26 09:00:32;;;;;;;;;;;;;;;32.28;67.08;100830.28;5044374;28;70428;-46
2023/10/26 09:03:02;;;;;;;;;;;;;;;32.28;66.98;100816.69;5042109;28;66658;-45
2023/10/26 09:05:54;;;;;;;;;;;;;;;32.29;66.70;100815.66;5042224;28;69755;-45
2023/10/26 09:08:27;;;;;;;;;;;;;;;32.29;66.82;100834.66;5057061;28;64268;-45
2023/10/26 09:10:57;;;;;;;;;;;;;;;32.30;66.59;100841.75;5040773;28;69807;-45
2023/10/26 09:13:28;;;;;;;;;;;;;;;32.30;66.62;100852.59;5032849;28;65555;-46
2023/10/26 09:15:58;;;;;;;;;;;;;;;31.94;68.00;100870.59;5030657;28;71928;-41
2023/10/26 09:18:28;;;;;;;;;;;;;;;31.71;69.41;100892.97;5039707;28;66886;-42
2023/10/26 09:21:05;;;;;;;;;;;;;;;31.56;70.29;100895.22;5031751;28;70453;-42
2023/10/26 09:23:37;;;;;;;;;;;;;;;31.44;70.93;100876.16;5035969;28;65825;-42
2023/10/26 09:26:07;;;;;;;;;;;;;;;31.36;71.34;100868.31;5040262;28;69877;-42
2023/10/26 09:28:51;;;;;;;;;;;;;;;31.31;71.93;100882.50;5034695;28;66626;-43
2023/10/26 09:31:22;;;;;;;;;;;;;;;31.29;72.17;100883.78;5034510;28;70380;-43
2023/10/26 09:33:53;;;;;;;;;;;;;;;31.26;72.63;100890.47;5030219;28;65269;-43
2023/10/26 09:36:22;;;;;;;;;;;;;;;31.24;72.18;100887.16;5035336;28;70771;-42
2023/10/26 09:38:53;;;;;;;;;;;;;;;31.21;72.61;100887.59;5038349;28;65675;-44
2023/10/26 09:41:24;;;;;;;;;;;;;;;31.24;72.43;100889.88;5033113;28;70375;-42
2023/10/26 09:43:54;;;;;;;;;;;;;;;31.42;72.15;100882.84;5038798;28;66327;-41
2023/10/26 09:46:25;;;;;;;;;;;;;;;31.37;72.48;100869.94;5038434;28;70521;-46
2023/10/26 09:48:55;;;;;;;;;;;;;;;31.37;72.44;100859.13;5040157;28;66229;-42
2023/10/26 09:51:25;;;;;;;;;;;;;;;31.37;71.68;100864.53;5038560;28;70795;-42
2023/10/26 09:53:55;;;;;;;;;;;;;;;31.35;71.78;100866.63;5039507;28;66953;-43
2023/10/26 09:56:26;;;;;;;;;;;;;;;31.38;71.45;100871.63;5039437;28;69758;-42
2023/10/26 09:58:57;;;;;;;;;;;;;;;31.38;71.54;100860.78;5036799;28;66813;-43
2023/10/26 10:01:36;;;;;;;;;;;;;;;31.33;71.53;100858.72;5037086;28;70013;-44
2023/10/26 10:04:08;;;;;;;;;;;;;;;31.34;71.40;100849.53;5036829;28;66770;-43
2023/10/26 10:06:50;;;;;;;;;;;;;;;31.33;71.66;100839.75;5040385;28;70268;-42
2023/10/26 10:09:22;;;;;;;;;;;;;;;31.31;71.47;100839.13;5040624;28;67337;-42
2023/10/26 10:12:05;;;;;;;;;;;;;;;31.33;71.55;100830.78;5045984;28;69855;-43
2023/10/26 10:15:30;;;;;;;;;;;;;;;31.32;71.69;100826.44;5059776;28;67293;-43
2023/10/26 10:17:43;;;;;;;;;;;;;;;31.31;71.54;100824.75;5044780;28;70571;-43
2023/10/26 10:20:19;;;;;;;;;;;;;;;31.30;71.76;100826.63;5043126;28;66858;-43
2023/10/26 10:22:50;;;;;;;;;;;;;;;31.30;71.66;100836.66;5033900;28;70658;-45
2023/10/26 10:25:23;;;;;;;;;;;;;;;31.29;71.95;100854.81;5041139;28;66211;-43
2023/10/26 10:27:53;;;;;;;;;;;;;;;31.29;71.63;100864.81;5042143;28;70256;-44
2023/10/26 10:30:28;;;;;;;;;;;;;;;31.29;71.80;100878.38;5041033;28;65932;-43
2023/10/26 10:33:01;;;;;;;;;;;;;;;31.29;71.99;100884.63;5033709;28;70466;-44
2023/10/26 10:35:43;;;;;;;;;;;;;;;31.29;71.82;100884.63;5043670;28;66001;-44
2023/10/26 10:38:13;;;;;;;;;;;;;;;31.26;72.14;100901.31;5038161;28;70670;-45
2023/10/26 10:40:55;;;;;;;;;;;;;;;31.29;72.27;100905.47;5035471;28;66776;-45
2023/10/26 10:43:32;;;;;;;;;;;;;;;31.25;71.81;100917.78;5038797;28;69075;-44
2023/10/26 10:46:15;;;;;;;;;;;;;;;31.22;72.26;100915.53;5041102;28;66897;-44
2023/10/26 10:48:56;;;;;;;;;;;;;;;31.23;72.17;100917.19;5028670;28;69917;-42
2023/10/26 10:51:35;;;;;;;;;;;;;;;31.20;72.34;100917.63;5039164;28;65480;-45
2023/10/26 10:54:06;;;;;;;;;;;;;;;31.20;72.22;100917.63;5043931;28;70398;-43
2023/10/26 10:56:56;;;;;;;;;;;;;;;31.16;72.06;100918.06;5024794;28;66119;-43
2023/10/26 10:59:26;;;;;;;;;;;;;;;31.13;72.25;100918.50;5039513;28;70347;-42
2023/10/26 11:02:15;;;;;;;;;;;;;;;31.13;72.61;100917.69;5043115;28;65502;-44
2023/10/26 11:05:05;;;;;;;;;;;;;;;31.12;72.71;100916.00;5042976;28;69833;-44
2023/10/26 11:07:47;;;;;;;;;;;;;;;31.11;73.69;100926.03;5042186;28;65471;-42
2023/10/26 11:10:17;;;;;;;;;;;;;;;31.12;74.37;100926.84;5043296;28;69283;-48
2023/10/26 11:12:51;;;;;;;;;;;;;;;31.13;74.25;100934.78;5058074;28;66839;-42
2023/10/26 11:15:30;;;;;;;;;;;;;;;31.11;74.82;100925.22;5043077;28;69696;-44
2023/10/26 11:18:00;;;;;;;;;;;;;;;31.11;74.66;100922.50;5042910;28;65963;-41
2023/10/26 11:20:38;;;;;;;;;;;;;;;31.12;74.79;100930.41;5043583;28;70823;-41
2023/10/26 11:23:09;;;;;;;;;;;;;;;31.08;74.38;100929.19;5041794;28;66557;-42
2023/10/26 11:25:39;;;;;;;;;;;;;;;31.06;74.36;100925.03;5040328;28;70969;-42
2023/10/26 11:28:09;;;;;;;;;;;;;;;31.06;74.60;100925.03;5042861;28;66991;-42
2023/10/26 11:30:59;;;;;;;;;;;;;;;31.06;74.93;100933.16;5042813;28;70348;-41
2023/10/26 11:33:42;;;;;;;;;;;;;;;31.05;75.00;100934.22;5039837;28;66379;-41
2023/10/26 11:36:13;;;;;;;;;;;;;;;31.04;74.94;100938.00;5048656;28;68948;-43
2023/10/26 11:38:49;;;;;;;;;;;;;;;30.99;75.00;100954.91;5042603;28;67363;-42
2023/10/26 11:41:20;;;;;;;;;;;;;;;30.99;75.34;100964.91;5041262;28;69135;-41
2023/10/26 11:43:50;;;;;;;;;;;;;;;31.00;75.08;100972.78;5033690;28;67284;-42
2023/10/26 11:46:30;;;;;;;;;;;;;;;30.96;74.95;100977.00;5036398;28;69974;-43
2023/10/26 11:49:01;;;;;;;;;;;;;;;30.97;75.46;100985.97;5040234;28;67016;-42
2023/10/26 11:51:33;;;;;;;;;;;;;;;30.95;75.61;100988.88;5040066;28;69369;-41
2023/10/26 11:54:11;;;;;;;;;;;;;;;30.95;75.13;100980.75;5028781;28;67364;-42
2023/10/26 11:56:40;;;;;;;;;;;;;;;30.95;75.61;100983.44;5030442;28;70331;-42
2023/10/26 11:59:11;;;;;;;;;;;;;;;30.96;75.44;100977.00;5040356;28;66659;-42
2023/10/26 12:01:41;;;;;;;;;;;;;;;30.94;75.41;100984.50;5041474;28;70187;-41
2023/10/26 12:04:11;;;;;;;;;;;;;;;30.92;75.79;100981.19;5039102;28;66553;-43
2023/10/26 12:06:42;;;;;;;;;;;;;;;30.91;75.77;101001.19;5023129;28;70578;-42
2023/10/26 12:09:13;;;;;;;;;;;;;;;30.89;75.43;101000.59;5038635;28;66814;-41
2023/10/26 12:11:45;;;;;;;;;;;;;;;30.87;75.43;101006.22;5041329;28;70298;-41
2023/10/26 12:14:15;;;;;;;;;;;;;;;30.86;75.69;101009.16;5035243;28;66489;-43
2023/10/26 12:16:46;;;;;;;;;;;;;;;30.87;75.97;101024.34;5040400;28;70343;-43
2023/10/26 12:19:16;;;;;;;;;;;;;;;30.84;76.13;101027.47;5040745;28;65875;-42
2023/10/26 12:21:46;;;;;;;;;;;;;;;30.82;75.89;101022.31;5040510;28;69989;-42
2023/10/26 12:24:16;;;;;;;;;;;;;;;30.82;75.92;101033.13;5034636;28;66915;-41
2023/10/26 12:26:46;;;;;;;;;;;;;;;30.82;76.10;101051.25;5036087;28;70228;-42
2023/10/26 12:29:18;;;;;;;;;;;;;;;30.79;76.20;101049.78;5030517;28;66062;-41
2023/10/26 12:31:48;;;;;;;;;;;;;;;30.79;76.10;101057.09;5040457;28;70147;-44
2023/10/26 12:34:21;;;;;;;;;;;;;;;30.77;76.16;101053.75;5048548;28;66289;-42
2023/10/26 12:36:51;;;;;;;;;;;;;;;30.76;76.17;101062.91;5042865;28;69630;-42
2023/10/26 12:39:21;;;;;;;;;;;;;;;30.73;76.27;101065.03;5036367;28;65451;-43
2023/10/26 12:41:51;;;;;;;;;;;;;;;30.73;76.44;101070.44;5041553;28;70192;-42
2023/10/26 12:44:24;;;;;;;;;;;;;;;30.73;76.62;101067.72;5041035;28;65282;-42
2023/10/26 12:46:54;;;;;;;;;;;;;;;30.72;76.35;101074.16;5040432;28;70381;-43
2023/10/26 12:49:24;;;;;;;;;;;;;;;30.72;76.41;101081.47;5054938;28;66057;-42
2023/10/26 12:51:54;;;;;;;;;;;;;;;30.72;76.64;101087.72;5034879;28;70726;-41
2023/10/26 12:54:24;;;;;;;;;;;;;;;30.72;76.47;101092.31;5035112;28;67023;-42
2023/10/26 12:56:54;;;;;;;;;;;;;;;30.70;76.66;101087.13;5040804;28;69528;-42
2023/10/26 12:59:24;;;;;;;;;;;;;;;30.71;76.58;101093.34;5046274;28;65985;-41